createdAt,value
2022-10-29T00:00:28.643Z,15.74
2022-10-29T00:05:44.574Z,15.70
2022-10-29T00:10:36.965Z,15.67
2022-10-29T00:15:36.905Z,15.64
2022-10-29T00:20:36.906Z,15.62
2022-10-29T00:25:36.787Z,15.59
2022-10-29T00:30:36.703Z,15.56
2022-10-29T00:35:36.645Z,15.53
2022-10-29T00:40:36.587Z,15.50
2022-10-29T00:45:36.521Z,15.47
2022-10-29T00:50:36.438Z,15.42
2022-10-29T00:55:36.433Z,15.38
2022-10-29T01:00:36.312Z,15.34
2022-10-29T01:05:36.278Z,15.30
2022-10-29T01:10:36.173Z,15.27
2022-10-29T01:15:36.126Z,15.23
2022-10-29T01:20:36.040Z,15.19
2022-10-29T01:25:35.989Z,15.15
2022-10-29T01:30:35.894Z,15.09
2022-10-29T01:35:35.852Z,15.02
2022-10-29T01:40:35.783Z,14.96
2022-10-29T01:45:35.714Z,14.90
2022-10-29T01:50:35.651Z,14.87
2022-10-29T01:55:35.576Z,14.85
2022-10-29T02:00:35.611Z,14.85
2022-10-29T02:05:35.452Z,14.85
2022-10-29T02:10:35.376Z,14.85
2022-10-29T02:15:35.344Z,14.83
2022-10-29T02:20:35.245Z,14.79
2022-10-29T02:25:35.230Z,14.73
2022-10-29T02:30:35.117Z,14.65
2022-10-29T02:35:35.079Z,14.57
2022-10-29T02:40:35.002Z,14.48
2022-10-29T02:45:34.926Z,14.40
2022-10-29T02:50:34.826Z,14.32
2022-10-29T02:55:34.801Z,14.25
2022-10-29T03:00:34.712Z,14.16
2022-10-29T03:05:34.645Z,14.08
2022-10-29T03:10:34.579Z,14.01
2022-10-29T03:15:34.514Z,13.94
2022-10-29T03:20:34.466Z,13.89
2022-10-29T03:25:34.386Z,13.85
2022-10-29T03:30:34.334Z,13.81
2022-10-29T03:35:34.310Z,13.77
2022-10-29T03:40:34.161Z,13.74
2022-10-29T03:45:34.119Z,13.71
2022-10-29T03:50:34.085Z,13.69
2022-10-29T03:55:33.971Z,13.67
2022-10-29T04:00:33.924Z,13.66
2022-10-29T04:05:33.839Z,13.65
2022-10-29T04:10:33.936Z,13.65
2022-10-29T04:15:48.259Z,13.67
2022-10-29T04:21:05.784Z,13.71
2022-10-29T04:30:41.497Z,13.81
2022-10-29T04:35:40.458Z,13.86
2022-10-29T04:40:40.414Z,13.92
2022-10-29T04:45:40.370Z,13.99
2022-10-29T04:50:40.266Z,14.06
2022-10-29T04:55:40.211Z,14.12
2022-10-29T05:00:40.173Z,14.20
2022-10-29T05:05:40.052Z,14.27
2022-10-29T05:10:40.006Z,14.33
2022-10-29T05:15:39.936Z,14.38
2022-10-29T05:20:39.859Z,14.43
2022-10-29T05:25:39.791Z,14.48
2022-10-29T05:30:39.725Z,14.51
2022-10-29T05:35:39.660Z,14.53
2022-10-29T05:40:39.583Z,14.54
2022-10-29T05:45:39.531Z,14.53
2022-10-29T05:50:39.476Z,14.50
2022-10-29T05:55:39.415Z,14.47
2022-10-29T06:00:39.351Z,14.43
2022-10-29T06:05:39.264Z,14.39
2022-10-29T06:10:39.215Z,14.34
2022-10-29T06:15:39.127Z,14.29
2022-10-29T06:20:39.055Z,14.25
2022-10-29T06:25:38.987Z,14.23
2022-10-29T06:30:38.946Z,14.23
2022-10-29T06:35:38.873Z,14.22
2022-10-29T06:40:38.798Z,14.23
2022-10-29T06:45:38.747Z,14.25
2022-10-29T06:50:38.686Z,14.29
2022-10-29T06:55:38.580Z,14.36
2022-10-29T07:00:38.606Z,14.45
2022-10-29T07:05:38.486Z,14.57
2022-10-29T07:10:38.391Z,14.70
2022-10-29T07:15:38.372Z,14.81
2022-10-29T07:20:38.295Z,14.89
2022-10-29T07:25:38.200Z,14.96
2022-10-29T07:30:38.150Z,15.04
2022-10-29T07:35:38.072Z,15.13
2022-10-29T07:40:38.003Z,15.24
2022-10-29T07:45:37.940Z,15.38
2022-10-29T07:50:37.910Z,15.54
2022-10-29T07:55:37.837Z,15.72
2022-10-29T08:00:37.871Z,15.88
2022-10-29T08:05:37.696Z,16.01
2022-10-29T08:10:37.605Z,16.12
2022-10-29T08:15:37.580Z,16.24
2022-10-29T08:20:37.472Z,16.46
2022-10-29T08:25:37.434Z,16.80
2022-10-29T08:30:37.372Z,17.19
2022-10-29T08:35:37.260Z,17.54
2022-10-29T08:40:37.216Z,17.93
2022-10-29T08:45:37.154Z,18.31
2022-10-29T08:50:37.069Z,18.50
2022-10-29T08:55:37.008Z,18.45
2022-10-29T09:00:36.939Z,18.29
2022-10-29T09:05:36.871Z,18.15
2022-10-29T09:10:36.814Z,18.04
2022-10-29T09:15:36.739Z,17.98
2022-10-29T09:20:36.672Z,17.99
2022-10-29T09:25:36.616Z,18.08
2022-10-29T09:30:36.553Z,18.23
2022-10-29T09:35:36.568Z,18.45
2022-10-29T09:40:36.451Z,18.69
2022-10-29T09:45:36.343Z,18.91
2022-10-29T09:50:36.283Z,19.03
2022-10-29T09:55:36.205Z,19.04
2022-10-29T10:00:36.181Z,18.94
2022-10-29T10:05:36.083Z,18.80
2022-10-29T10:10:36.011Z,18.68
2022-10-29T10:15:35.933Z,18.59
2022-10-29T10:20:35.883Z,18.51
2022-10-29T10:25:35.877Z,18.50
2022-10-29T10:30:35.731Z,18.58
2022-10-29T10:35:35.671Z,18.75
2022-10-29T10:40:35.626Z,19.00
2022-10-29T10:45:35.561Z,19.31
2022-10-29T10:50:35.480Z,19.66
2022-10-29T10:55:35.443Z,20.05
2022-10-29T11:00:35.402Z,20.43
2022-10-29T11:05:35.295Z,20.72
2022-10-29T11:10:35.217Z,20.84
2022-10-29T11:15:35.152Z,20.79
2022-10-29T11:20:35.074Z,20.70
2022-10-29T11:25:35.017Z,20.64
2022-10-29T11:30:34.938Z,20.65
2022-10-29T11:35:34.880Z,20.78
2022-10-29T11:40:34.818Z,20.90
2022-10-29T11:45:34.754Z,20.96
2022-10-29T11:50:34.825Z,21.01
2022-10-29T11:55:34.616Z,21.05
2022-10-29T12:00:34.552Z,21.08
2022-10-29T12:05:34.479Z,21.12
2022-10-29T12:10:34.411Z,21.20
2022-10-29T12:15:34.363Z,21.35
2022-10-29T12:20:34.268Z,21.54
2022-10-29T12:25:34.211Z,21.76
2022-10-29T12:30:34.145Z,21.97
2022-10-29T12:35:34.363Z,22.11
2022-10-29T12:40:34.015Z,22.18
2022-10-29T12:45:34.934Z,22.21
2022-10-29T12:50:34.882Z,22.24
2022-10-29T12:55:33.853Z,22.21
2022-10-29T13:00:33.789Z,22.17
2022-10-29T13:05:34.586Z,22.15
2022-10-29T13:10:33.638Z,22.11
2022-10-29T13:15:33.579Z,22.05
2022-10-29T13:20:33.478Z,22.00
2022-10-29T13:25:33.437Z,21.94
2022-10-29T13:30:33.360Z,21.88
2022-10-29T13:35:33.283Z,21.82
2022-10-29T13:40:33.389Z,21.78
2022-10-29T13:45:33.176Z,21.72
2022-10-29T13:50:33.091Z,21.61
2022-10-29T13:55:33.019Z,21.47
2022-10-29T14:00:32.988Z,21.32
2022-10-29T14:05:32.904Z,21.24
2022-10-29T14:10:32.827Z,21.23
2022-10-29T14:15:32.767Z,21.22
2022-10-29T14:20:32.704Z,21.17
2022-10-29T14:25:32.623Z,21.04
2022-10-29T14:30:32.579Z,20.87
2022-10-29T14:35:32.481Z,20.70
2022-10-29T14:40:32.420Z,20.53
2022-10-29T14:45:32.373Z,20.38
2022-10-29T14:50:32.300Z,20.26
2022-10-29T14:55:32.263Z,20.15
2022-10-29T15:00:32.153Z,20.06
2022-10-29T15:05:32.131Z,19.98
2022-10-29T15:10:32.034Z,19.89
2022-10-29T15:15:31.960Z,19.80
2022-10-29T15:20:31.915Z,19.70
2022-10-29T15:25:31.814Z,19.56
2022-10-29T15:30:31.765Z,19.42
2022-10-29T15:35:31.696Z,19.26
2022-10-29T15:40:31.955Z,19.10
2022-10-29T15:45:31.579Z,18.94
2022-10-29T15:50:31.571Z,18.79
2022-10-29T15:55:31.463Z,18.63
2022-10-29T16:00:31.431Z,18.47
2022-10-29T16:05:31.294Z,18.31
2022-10-29T16:10:31.233Z,18.16
2022-10-29T16:15:31.263Z,18.02
2022-10-29T16:20:31.138Z,17.88
2022-10-29T16:25:31.029Z,17.74
2022-10-29T16:30:31.007Z,17.62
2022-10-29T16:35:30.894Z,17.51
2022-10-29T16:40:30.873Z,17.42
2022-10-29T16:45:30.757Z,17.34
2022-10-29T16:50:30.735Z,17.27
2022-10-29T16:55:30.629Z,17.20
2022-10-29T17:00:30.596Z,17.12
2022-10-29T17:05:30.524Z,17.04
2022-10-29T17:10:30.436Z,16.96
2022-10-29T17:15:30.370Z,16.87
2022-10-29T17:20:30.336Z,16.79
2022-10-29T17:25:30.223Z,16.71
2022-10-29T17:30:30.185Z,16.64
2022-10-29T17:35:30.113Z,16.56
2022-10-29T17:40:30.047Z,16.50
2022-10-29T17:45:29.963Z,16.45
2022-10-29T17:50:29.921Z,16.41
2022-10-29T17:55:29.876Z,16.36
2022-10-29T18:00:29.842Z,16.30
2022-10-29T18:05:29.729Z,16.23
2022-10-29T18:10:29.667Z,16.15
2022-10-29T18:15:29.563Z,16.08
2022-10-29T18:20:29.542Z,16.01
2022-10-29T18:25:29.500Z,15.95
2022-10-29T18:30:29.408Z,15.90
2022-10-29T18:35:29.318Z,15.84
2022-10-29T18:40:29.262Z,15.80
2022-10-29T18:45:29.210Z,15.77
2022-10-29T18:50:29.109Z,15.74
2022-10-29T18:55:29.111Z,15.72
2022-10-29T19:00:28.982Z,15.71
2022-10-29T19:05:28.910Z,15.69
2022-10-29T19:10:28.852Z,15.66
2022-10-29T19:15:28.781Z,15.63
2022-10-29T19:20:28.717Z,15.58
2022-10-29T19:25:28.615Z,15.54
2022-10-29T19:30:28.610Z,15.50
2022-10-29T19:35:28.510Z,15.45
2022-10-29T19:40:28.529Z,15.41
2022-10-29T19:45:28.436Z,15.36
2022-10-29T19:50:28.457Z,15.32
2022-10-29T19:55:28.263Z,15.29
2022-10-29T20:00:28.178Z,15.27
2022-10-29T20:05:28.198Z,15.26
2022-10-29T20:10:28.087Z,15.25
2022-10-29T20:15:27.999Z,15.23
2022-10-29T20:20:27.914Z,15.21
2022-10-29T20:25:27.863Z,15.19
2022-10-29T20:30:27.818Z,15.17
2022-10-29T20:35:27.725Z,15.15
2022-10-29T20:40:27.650Z,15.14
2022-10-29T20:45:27.595Z,15.14
2022-10-29T20:50:27.492Z,15.13
2022-10-29T20:55:27.451Z,15.12
2022-10-29T21:00:27.384Z,15.12
2022-10-29T21:05:27.375Z,15.11
2022-10-29T21:10:27.295Z,15.11
2022-10-29T21:15:27.184Z,15.12
2022-10-29T21:20:27.121Z,15.14
2022-10-29T21:25:27.056Z,15.15
2022-10-29T21:30:26.984Z,15.15
2022-10-29T21:35:26.923Z,15.16
2022-10-29T21:40:26.872Z,15.18
2022-10-29T21:45:26.787Z,15.21
2022-10-29T21:50:26.684Z,15.24
2022-10-29T21:55:26.662Z,15.28
2022-10-29T22:00:26.577Z,15.33
2022-10-29T22:05:26.496Z,15.39
2022-10-29T22:10:26.449Z,15.44
2022-10-29T22:15:26.359Z,15.50
2022-10-29T22:20:26.294Z,15.54
2022-10-29T22:25:26.235Z,15.58
2022-10-29T22:30:26.172Z,15.63
2022-10-29T22:35:26.083Z,15.67
2022-10-29T22:40:26.035Z,15.72
2022-10-29T22:45:26.048Z,15.76
2022-10-29T22:50:25.899Z,15.80
2022-10-29T22:55:25.945Z,15.82
2022-10-29T23:00:25.793Z,15.82
2022-10-29T23:05:25.711Z,15.79
2022-10-29T23:10:25.676Z,15.75
2022-10-29T23:15:25.585Z,15.70
2022-10-29T23:20:25.517Z,15.64
2022-10-29T23:25:25.459Z,15.58
2022-10-29T23:30:25.397Z,15.52
2022-10-29T23:35:25.307Z,15.46
2022-10-29T23:40:25.267Z,15.40
2022-10-29T23:45:25.155Z,15.37
2022-10-29T23:50:25.123Z,15.35
2022-10-29T23:55:25.040Z,15.34
